METAR Data
IDs: Format: Raw Decoded Include TAF

Data at: 2216 UTC 30 Jun 2022

METAR for:KRBW (Walterboro/Lowcountr, SC, US)
Text:KRBW 302155Z AUTO 00000KT 10SM BKN008 BKN013 BKN032 25/25 A3015 RMK AO2 P0001
Temperature: 25.0°C ( 77°F)
Dewpoint: 25.0°C ( 77°F) [RH = 100%]
Pressure (altimeter):30.15 inches Hg (1021.1 mb)
Winds:calm
Visibility:10 or more sm (16+ km)
Ceiling:800 feet AGL
Clouds: broken clouds at 800 feet AGL, broken clouds at 1300 feet AGL, broken clouds at 3200 feet AGL
QC Flag:automated observation with no human augmentation

TAF for:KRBW (Walterboro/Lowcountr, SC, US)
Text:No data found